createdAt,value
2018-10-12T21:38:36.004Z,70.80
2018-10-12T21:41:05.299Z,71.80
2018-10-12T21:43:34.311Z,70.90
2018-10-12T21:46:07.588Z,71.00
2018-10-12T21:48:39.632Z,70.80
2018-10-12T21:51:09.454Z,71.30
2018-10-12T21:53:38.849Z,72.00
2018-10-12T21:56:07.879Z,72.40
2018-10-12T21:58:37.692Z,72.20
2018-10-12T22:01:09.926Z,72.80
2018-10-12T22:03:40.167Z,73.20
2018-10-12T22:06:09.532Z,73.40
2018-10-12T22:08:43.838Z,74.10
2018-10-12T22:11:12.715Z,74.80
2018-10-12T22:13:41.904Z,75.00
2018-10-12T22:16:12.973Z,75.30
2018-10-12T22:18:44.937Z,75.70
2018-10-12T22:21:14.090Z,75.90
2018-10-12T22:23:42.917Z,76.10
2018-10-12T22:26:12.296Z,76.40
2018-10-12T22:28:41.060Z,76.50
2018-10-12T22:31:10.061Z,76.60
2018-10-12T22:33:42.160Z,76.90
2018-10-12T22:36:11.778Z,77.10
2018-10-12T22:38:43.205Z,77.20
2018-10-12T22:41:12.583Z,77.90
2018-10-12T22:43:41.345Z,78.30
2018-10-12T22:46:10.329Z,78.30
2018-10-12T22:48:39.333Z,78.60
2018-10-12T22:51:09.001Z,78.90
2018-10-12T22:53:37.808Z,78.90
2018-10-12T22:56:07.107Z,79.00
2018-10-12T22:58:36.632Z,78.90
2018-10-12T23:01:07.053Z,78.70
2018-10-12T23:03:37.640Z,78.30
2018-10-12T23:06:07.424Z,78.20
2018-10-12T23:08:36.620Z,78.10
2018-10-12T23:11:05.988Z,77.90
2018-10-12T23:13:38.928Z,78.20
2018-10-12T23:16:13.665Z,78.40
2018-10-12T23:18:43.809Z,77.80
2018-10-12T23:21:13.036Z,77.70
2018-10-12T23:23:41.825Z,77.60
2018-10-12T23:26:11.136Z,77.90
2018-10-12T23:28:45.197Z,78.40
2018-10-12T23:31:19.404Z,77.40
2018-10-12T23:34:02.436Z,77.10
2018-10-12T23:36:36.032Z,77.70
2018-10-12T23:39:13.489Z,77.60
2018-10-12T23:41:49.422Z,77.50
2018-10-12T23:44:25.989Z,77.70
2018-10-12T23:46:59.415Z,77.80
2018-10-12T23:49:30.650Z,77.60
2018-10-12T23:52:01.477Z,77.50
2018-10-12T23:54:30.289Z,77.70
2018-10-12T23:56:59.554Z,78.30
2018-10-12T23:59:28.614Z,78.00
